createdAt,value
2019-02-20T00:00:51.874Z,92.40
2019-02-20T00:01:52.578Z,92.85
2019-02-20T00:02:51.882Z,91.82
2019-02-20T00:03:51.851Z,92.33
2019-02-20T00:04:51.836Z,91.98
2019-02-20T00:05:51.855Z,92.70
2019-02-20T00:06:51.816Z,92.85
2019-02-20T00:07:51.809Z,93.32
2019-02-20T00:08:51.822Z,92.80
2019-02-20T00:09:51.784Z,92.80
2019-02-20T00:10:51.765Z,93.47
2019-02-20T00:11:51.760Z,93.16
2019-02-20T00:12:51.758Z,92.54
2019-02-20T00:13:51.746Z,92.85
2019-02-20T00:14:51.746Z,92.74
2019-02-20T00:15:51.730Z,92.95
2019-02-20T00:16:51.727Z,92.95
2019-02-20T00:17:51.695Z,92.85
2019-02-20T00:18:51.696Z,92.85
2019-02-20T00:19:51.704Z,92.80
2019-02-20T00:20:51.699Z,92.40
2019-02-20T00:21:51.680Z,92.33
2019-02-20T00:22:51.635Z,91.82
2019-02-20T00:23:51.636Z,91.98
2019-02-20T00:24:51.622Z,92.19
2019-02-20T00:25:51.633Z,92.19
2019-02-20T00:26:51.612Z,92.29
2019-02-20T00:27:51.585Z,91.98
2019-02-20T00:28:51.581Z,92.50
2019-02-20T00:29:51.566Z,92.29
2019-02-20T00:30:51.569Z,91.77
2019-02-20T00:31:51.550Z,91.77
2019-02-20T00:32:51.553Z,92.19
2019-02-20T00:33:51.527Z,91.77
2019-02-20T00:34:51.512Z,92.29
2019-02-20T00:35:51.611Z,92.13
2019-02-20T00:36:51.495Z,92.80
2019-02-20T00:37:51.488Z,92.33
2019-02-20T00:38:51.466Z,91.71
2019-02-20T00:39:51.462Z,92.44
2019-02-20T00:40:51.503Z,92.33
2019-02-20T00:41:51.454Z,92.80
2019-02-20T00:42:51.433Z,93.43
2019-02-20T00:43:51.424Z,93.32
2019-02-20T00:44:51.408Z,93.01
2019-02-20T00:45:51.395Z,92.85
2019-02-20T00:46:51.423Z,93.37
2019-02-20T00:47:51.442Z,92.74
2019-02-20T00:48:51.359Z,92.85
2019-02-20T00:49:51.370Z,92.85
2019-02-20T00:50:51.336Z,93.37
2019-02-20T00:51:51.338Z,93.37
2019-02-20T00:52:51.345Z,93.78
2019-02-20T00:53:51.313Z,92.74
2019-02-20T00:54:51.312Z,93.01
2019-02-20T00:55:51.301Z,92.85
2019-02-20T00:56:51.282Z,92.60
2019-02-20T00:57:51.318Z,92.64
2019-02-20T00:58:51.281Z,92.02
2019-02-20T00:59:51.255Z,92.33
2019-02-20T01:00:51.290Z,92.85
2019-02-20T01:01:51.239Z,92.60
2019-02-20T01:02:51.221Z,92.13
2019-02-20T01:03:51.267Z,92.80
2019-02-20T01:04:51.189Z,92.40
2019-02-20T01:05:51.189Z,92.02
2019-02-20T01:06:51.178Z,92.54
2019-02-20T01:07:51.210Z,92.70
2019-02-20T01:08:51.153Z,92.44
2019-02-20T01:09:51.167Z,91.88
2019-02-20T01:10:51.132Z,91.88
2019-02-20T01:11:51.125Z,92.29
2019-02-20T01:12:51.117Z,92.70
2019-02-20T01:13:51.117Z,91.98
2019-02-20T01:14:51.109Z,92.02
2019-02-20T01:15:51.077Z,92.29
2019-02-20T01:16:51.075Z,92.40
2019-02-20T01:17:51.060Z,92.44
2019-02-20T01:18:51.054Z,92.02
2019-02-20T01:19:51.053Z,92.44
2019-02-20T01:20:51.051Z,92.02
2019-02-20T01:21:51.013Z,92.33
2019-02-20T01:22:59.609Z,92.02
2019-02-20T01:23:51.989Z,92.13
2019-02-20T01:24:50.991Z,92.44
2019-02-20T01:25:50.997Z,91.92
2019-02-20T01:26:50.971Z,91.82
2019-02-20T01:27:50.981Z,91.88
2019-02-20T01:28:50.970Z,91.92
2019-02-20T01:29:50.939Z,92.13
2019-02-20T01:30:50.928Z,91.92
2019-02-20T01:31:50.901Z,91.82
2019-02-20T01:32:50.898Z,91.82
2019-02-20T01:33:50.884Z,92.33
2019-02-20T01:34:50.902Z,91.67
2019-02-20T01:35:50.868Z,92.13
2019-02-20T01:36:50.868Z,92.29
2019-02-20T01:37:50.846Z,92.23
2019-02-20T01:38:50.835Z,91.46
2019-02-20T01:39:50.832Z,91.61
2019-02-20T01:40:50.831Z,91.50
2019-02-20T01:41:50.809Z,91.71
2019-02-20T01:42:50.801Z,91.92
2019-02-20T01:43:50.781Z,91.71
2019-02-20T01:44:50.763Z,91.61
2019-02-20T01:45:50.773Z,91.92
2019-02-20T01:46:50.780Z,92.40
2019-02-20T01:47:50.737Z,91.92
2019-02-20T01:48:50.729Z,92.02
2019-02-20T01:49:50.721Z,92.23
2019-02-20T01:50:50.698Z,92.33
2019-02-20T01:51:50.703Z,92.95
2019-02-20T01:52:50.716Z,92.23
2019-02-20T01:53:50.670Z,91.82
2019-02-20T01:54:50.666Z,92.54
2019-02-20T01:55:50.647Z,92.23
2019-02-20T01:56:50.640Z,92.54
2019-02-20T01:57:50.680Z,92.54
2019-02-20T01:58:50.624Z,91.50
2019-02-20T01:59:50.626Z,91.71
2019-02-20T02:00:50.601Z,91.92
2019-02-20T02:01:50.589Z,91.82
2019-02-20T02:02:50.586Z,91.82
2019-02-20T02:03:50.600Z,91.61
2019-02-20T02:04:50.557Z,92.33
2019-02-20T02:05:50.560Z,92.33
2019-02-20T02:06:50.528Z,92.13
2019-02-20T02:07:50.534Z,92.13
2019-02-20T02:08:50.512Z,92.23
2019-02-20T02:09:50.554Z,91.61
2019-02-20T02:10:50.497Z,91.71
2019-02-20T02:11:50.500Z,92.33
2019-02-20T02:12:50.473Z,92.33
2019-02-20T02:13:50.459Z,91.92
2019-02-20T02:14:50.482Z,91.71
2019-02-20T02:15:50.437Z,91.61
2019-02-20T02:16:50.441Z,91.61
2019-02-20T02:17:50.445Z,92.02
2019-02-20T02:18:50.423Z,91.92
2019-02-20T02:19:50.396Z,92.13
2019-02-20T02:20:50.415Z,91.92
2019-02-20T02:21:50.373Z,91.82
2019-02-20T02:22:50.378Z,91.92
2019-02-20T02:23:50.355Z,91.82
2019-02-20T02:24:50.356Z,92.33
2019-02-20T02:25:50.334Z,92.23
2019-02-20T02:26:50.347Z,92.33
2019-02-20T02:27:50.314Z,91.61
2019-02-20T02:28:50.312Z,91.82
2019-02-20T02:29:50.284Z,92.33
2019-02-20T02:30:50.315Z,92.23
2019-02-20T02:31:50.294Z,91.82
2019-02-20T02:32:50.256Z,91.82
2019-02-20T02:33:50.259Z,91.82
2019-02-20T02:34:50.250Z,91.71
2019-02-20T02:35:50.226Z,91.40
2019-02-20T02:36:50.213Z,92.23
2019-02-20T02:37:50.235Z,92.54
2019-02-20T02:38:50.210Z,92.44
2019-02-20T02:39:50.186Z,91.71
2019-02-20T02:40:50.214Z,91.61
2019-02-20T02:41:50.167Z,92.23
2019-02-20T02:42:50.192Z,91.24
2019-02-20T02:43:50.143Z,91.13
2019-02-20T02:44:50.162Z,90.89
2019-02-20T02:45:50.123Z,91.13
2019-02-20T02:46:50.120Z,90.20
2019-02-20T02:47:50.095Z,90.37
2019-02-20T02:48:50.111Z,90.31
2019-02-20T02:49:50.077Z,90.26
2019-02-20T02:50:50.062Z,90.78
2019-02-20T02:51:50.067Z,91.03
2019-02-20T02:52:50.078Z,91.30
2019-02-20T02:53:50.037Z,91.96
2019-02-20T02:54:50.038Z,92.38
2019-02-20T02:55:50.025Z,91.75
2019-02-20T02:56:50.001Z,91.13
2019-02-20T02:57:49.992Z,91.34
2019-02-20T02:58:49.980Z,90.72
2019-02-20T02:59:49.984Z,90.93
2019-02-20T03:00:49.957Z,91.30
2019-02-20T03:01:49.971Z,91.40
2019-02-20T03:02:49.939Z,91.13
2019-02-20T03:03:49.941Z,91.13
2019-02-20T03:04:49.934Z,91.20
2019-02-20T03:05:49.905Z,91.75
2019-02-20T03:06:49.913Z,91.75
2019-02-20T03:07:49.886Z,91.03
2019-02-20T03:08:49.939Z,91.13
2019-02-20T03:09:49.896Z,90.99
2019-02-20T03:10:49.857Z,91.03
2019-02-20T03:11:49.852Z,90.83
2019-02-20T03:12:49.835Z,91.09
2019-02-20T03:13:49.818Z,90.78
2019-02-20T03:14:49.854Z,90.78
2019-02-20T03:15:49.818Z,90.93
2019-02-20T03:16:49.793Z,90.93
2019-02-20T03:17:49.774Z,90.93
2019-02-20T03:18:50.084Z,91.03
2019-02-20T03:19:49.755Z,90.93
2019-02-20T03:20:49.757Z,91.20
2019-02-20T03:21:49.737Z,90.99
2019-02-20T03:22:49.716Z,91.20
2019-02-20T03:23:49.746Z,90.83
2019-02-20T03:24:49.722Z,91.03
2019-02-20T03:25:49.691Z,90.93
2019-02-20T03:26:49.713Z,90.89
2019-02-20T03:27:49.667Z,91.65
2019-02-20T03:28:49.709Z,91.96
2019-02-20T03:29:49.648Z,91.50
2019-02-20T03:30:49.652Z,91.30
2019-02-20T03:31:49.629Z,91.03
2019-02-20T03:32:49.630Z,91.09
2019-02-20T03:33:49.611Z,91.82
2019-02-20T03:34:49.658Z,92.17
2019-02-20T03:35:49.590Z,92.07
2019-02-20T03:36:49.591Z,92.07
2019-02-20T03:37:49.558Z,91.75
2019-02-20T03:38:49.584Z,91.75
2019-02-20T03:39:49.585Z,92.38
2019-02-20T03:40:49.523Z,91.75
2019-02-20T03:41:49.520Z,91.86
2019-02-20T03:42:49.555Z,91.86
2019-02-20T03:43:49.534Z,91.75
2019-02-20T03:44:49.506Z,91.86
2019-02-20T03:45:49.472Z,91.96
2019-02-20T03:46:49.466Z,91.65
2019-02-20T03:47:49.452Z,91.65
2019-02-20T03:48:49.504Z,92.42
2019-02-20T03:49:49.443Z,93.10
2019-02-20T03:50:49.438Z,92.68
2019-02-20T03:51:49.412Z,92.17
2019-02-20T03:52:49.396Z,91.96
2019-02-20T03:53:51.899Z,93.04
2019-02-20T03:54:49.405Z,92.79
2019-02-20T03:55:49.380Z,92.58
2019-02-20T03:56:49.399Z,92.38
2019-02-20T03:57:49.369Z,92.17
2019-02-20T03:58:49.335Z,92.38
2019-02-20T03:59:49.329Z,91.96
2019-02-20T04:00:49.348Z,92.48
2019-02-20T04:01:49.317Z,91.65
2019-02-20T04:02:49.309Z,91.86
2019-02-20T04:03:49.300Z,92.58
2019-02-20T04:04:49.273Z,92.27
2019-02-20T04:05:49.272Z,91.96
2019-02-20T04:06:49.276Z,92.38
2019-02-20T04:07:49.253Z,92.27
2019-02-20T04:08:49.231Z,92.07
2019-02-20T04:09:49.214Z,92.38
2019-02-20T04:10:49.210Z,92.38
2019-02-20T04:11:49.241Z,92.48
2019-02-20T04:12:49.221Z,92.58
2019-02-20T04:13:49.176Z,92.07
2019-02-20T04:14:49.212Z,92.17
2019-02-20T04:15:49.154Z,92.58
2019-02-20T04:16:49.150Z,91.96
2019-02-20T04:17:49.164Z,92.48
2019-02-20T04:18:49.134Z,91.86
2019-02-20T04:19:49.140Z,91.86
2019-02-20T04:20:49.111Z,92.07
2019-02-20T04:21:49.111Z,91.86
2019-02-20T04:22:49.086Z,91.75
2019-02-20T04:23:49.104Z,92.07
2019-02-20T04:24:49.074Z,92.27
2019-02-20T04:25:49.072Z,91.96
2019-02-20T04:26:49.045Z,91.65
2019-02-20T04:27:49.038Z,92.00
2019-02-20T04:28:49.022Z,91.55
2019-02-20T04:29:49.047Z,91.86
2019-02-20T04:30:49.009Z,92.38
2019-02-20T04:31:48.990Z,91.96
2019-02-20T04:32:48.989Z,91.75
2019-02-20T04:33:48.966Z,91.86
2019-02-20T04:34:48.986Z,91.86
2019-02-20T04:35:48.969Z,91.86
2019-02-20T04:36:48.942Z,91.86
2019-02-20T04:37:48.926Z,91.86
2019-02-20T04:38:48.919Z,92.07
2019-02-20T04:39:48.907Z,91.86
2019-02-20T04:40:48.905Z,92.07
2019-02-20T04:41:48.883Z,91.96
2019-02-20T04:42:48.876Z,91.96
2019-02-20T04:43:48.861Z,92.48
2019-02-20T04:44:48.858Z,92.58
2019-02-20T04:45:48.862Z,92.38
2019-02-20T04:46:48.822Z,92.63
2019-02-20T04:47:48.820Z,92.58
2019-02-20T04:48:48.820Z,91.96
2019-02-20T04:49:48.799Z,91.65
2019-02-20T04:50:48.808Z,91.96
2019-02-20T04:51:48.778Z,92.11
2019-02-20T04:52:48.793Z,91.86
2019-02-20T04:53:48.758Z,92.48
2019-02-20T04:54:48.786Z,92.07
2019-02-20T04:55:48.790Z,91.65
2019-02-20T04:56:48.738Z,92.00
2019-02-20T04:57:48.748Z,91.55
2019-02-20T04:58:48.715Z,91.69
2019-02-20T04:59:48.723Z,92.07
2019-02-20T05:00:49.124Z,92.07
2019-02-20T05:01:48.719Z,92.07
2019-02-20T05:03:10.564Z,92.63
2019-02-20T05:03:49.558Z,92.07
2019-02-20T05:04:49.563Z,92.17
2019-02-20T05:05:49.108Z,92.58
2019-02-20T05:06:48.656Z,92.21
2019-02-20T05:08:03.604Z,91.86
2019-02-20T05:08:48.605Z,92.38
2019-02-20T05:09:48.590Z,92.48
2019-02-20T05:10:48.595Z,92.07
2019-02-20T05:11:48.566Z,92.11
2019-02-20T05:12:48.571Z,91.75
2019-02-20T05:13:48.574Z,92.07
2019-02-20T05:14:48.533Z,92.27
2019-02-20T05:15:48.555Z,92.48
2019-02-20T05:16:48.511Z,91.75
2019-02-20T05:17:48.519Z,91.80
2019-02-20T05:18:48.527Z,91.80
2019-02-20T05:19:48.528Z,91.86
2019-02-20T05:20:48.548Z,91.86
2019-02-20T05:21:48.483Z,91.80
2019-02-20T05:22:48.464Z,91.96
2019-02-20T05:23:48.455Z,92.38
2019-02-20T05:24:48.462Z,92.21
2019-02-20T05:25:59.096Z,92.38
2019-02-20T05:26:48.412Z,92.07
2019-02-20T05:27:48.417Z,92.27
2019-02-20T05:29:11.101Z,92.63
2019-02-20T05:30:10.050Z,92.38
2019-02-20T05:31:58.307Z,91.90
2019-02-20T05:32:58.293Z,91.96
2019-02-20T05:35:07.879Z,92.58
2019-02-20T05:36:07.889Z,92.48
2019-02-20T05:37:07.808Z,92.07
2019-02-20T05:38:07.813Z,92.38
2019-02-20T05:39:07.799Z,92.07
2019-02-20T05:40:07.830Z,92.17
2019-02-20T05:41:07.795Z,92.48
2019-02-20T05:42:07.817Z,92.38
2019-02-20T05:43:07.767Z,92.58
2019-02-20T05:44:07.749Z,91.96
2019-02-20T05:45:07.749Z,92.17
2019-02-20T05:46:07.810Z,92.32
2019-02-20T05:47:07.733Z,92.93
2019-02-20T05:48:07.717Z,92.99
2019-02-20T05:49:07.834Z,92.99
2019-02-20T05:50:07.700Z,92.27
2019-02-20T05:51:07.694Z,92.07
2019-02-20T05:52:07.689Z,92.79
2019-02-20T05:53:07.667Z,92.93
2019-02-20T05:54:07.664Z,92.83
2019-02-20T05:55:07.631Z,92.83
2019-02-20T05:56:07.739Z,92.79
2019-02-20T05:57:08.251Z,92.89
2019-02-20T05:58:07.617Z,92.93
2019-02-20T05:59:07.589Z,92.93
2019-02-20T06:00:07.568Z,92.93
2019-02-20T06:01:07.603Z,92.93
2019-02-20T06:02:07.569Z,93.14
2019-02-20T06:03:07.568Z,92.89
2019-02-20T06:04:07.576Z,92.93
2019-02-20T06:05:07.574Z,92.72
2019-02-20T06:06:07.541Z,92.93
2019-02-20T06:07:07.517Z,92.93
2019-02-20T06:08:07.553Z,93.24
2019-02-20T06:09:07.505Z,93.14
2019-02-20T06:10:07.543Z,92.83
2019-02-20T06:11:14.495Z,93.04
2019-02-20T06:12:08.457Z,92.83
2019-02-20T06:13:07.438Z,93.24
2019-02-20T06:14:07.461Z,92.83
2019-02-20T06:15:07.432Z,93.97
2019-02-20T06:16:07.388Z,93.87
2019-02-20T06:17:07.398Z,93.76
2019-02-20T06:18:07.476Z,93.97
2019-02-20T06:19:07.359Z,94.07
2019-02-20T06:20:07.355Z,93.04
2019-02-20T06:21:07.352Z,92.93
2019-02-20T06:22:07.377Z,92.93
2019-02-20T06:23:07.372Z,92.93
2019-02-20T06:24:07.306Z,93.35
2019-02-20T06:25:07.296Z,93.97
2019-02-20T06:26:07.317Z,92.93
2019-02-20T06:27:08.043Z,92.93
2019-02-20T06:28:07.310Z,93.45
2019-02-20T06:29:07.243Z,94.07
2019-02-20T06:30:07.254Z,94.07
2019-02-20T06:31:07.247Z,93.76
2019-02-20T06:32:07.277Z,93.76
2019-02-20T06:33:07.271Z,93.66
2019-02-20T06:34:07.286Z,93.87
2019-02-20T06:35:07.180Z,93.66
2019-02-20T06:36:07.190Z,93.66
2019-02-20T06:37:07.175Z,93.87
2019-02-20T06:38:10.525Z,93.76
2019-02-20T06:39:07.170Z,93.97
2019-02-20T06:40:07.172Z,94.07
2019-02-20T06:41:07.122Z,93.45
2019-02-20T06:42:07.122Z,92.89
2019-02-20T06:43:07.129Z,93.24
2019-02-20T06:44:07.128Z,93.04
2019-02-20T06:45:07.135Z,92.93
2019-02-20T06:46:07.060Z,93.87
2019-02-20T06:47:07.063Z,93.72
2019-02-20T06:48:07.048Z,93.66
2019-02-20T06:49:07.056Z,94.07
2019-02-20T06:50:07.067Z,92.93
2019-02-20T06:51:07.127Z,93.14
2019-02-20T06:52:07.028Z,93.24
2019-02-20T06:53:06.997Z,92.93
2019-02-20T06:54:06.985Z,93.04
2019-02-20T06:55:07.009Z,92.83
2019-02-20T06:56:06.981Z,94.07
2019-02-20T06:57:06.971Z,93.35
2019-02-20T06:58:06.954Z,93.04
2019-02-20T06:59:06.936Z,93.45
2019-02-20T07:00:06.943Z,93.97
2019-02-20T07:01:06.942Z,94.18
2019-02-20T07:02:06.952Z,93.97
2019-02-20T07:03:07.042Z,93.66
2019-02-20T07:04:06.865Z,93.97
2019-02-20T07:05:06.864Z,93.35
2019-02-20T07:06:06.912Z,92.93
2019-02-20T07:07:06.901Z,92.83
2019-02-20T07:08:06.828Z,93.35
2019-02-20T07:09:06.895Z,93.14
2019-02-20T07:10:06.810Z,92.99
2019-02-20T07:11:06.817Z,93.35
2019-02-20T07:12:06.849Z,93.66
2019-02-20T07:13:06.835Z,94.03
2019-02-20T07:14:06.767Z,93.93
2019-02-20T07:15:06.762Z,93.62
2019-02-20T07:16:06.773Z,93.97
2019-02-20T07:17:06.861Z,94.03
2019-02-20T07:18:06.783Z,93.10
2019-02-20T07:19:06.726Z,93.04
2019-02-20T07:20:06.706Z,93.30
2019-02-20T07:21:06.748Z,94.03
2019-02-20T07:22:06.683Z,92.99
2019-02-20T07:23:06.685Z,93.30
2019-02-20T07:24:06.690Z,93.30
2019-02-20T07:25:06.643Z,93.41
2019-02-20T07:26:06.660Z,93.51
2019-02-20T07:27:06.706Z,93.51
2019-02-20T07:28:06.640Z,93.41
2019-02-20T07:29:06.631Z,92.89
2019-02-20T07:30:06.599Z,92.99
2019-02-20T07:31:06.583Z,92.79
2019-02-20T07:32:06.632Z,93.20
2019-02-20T07:33:06.660Z,93.10
2019-02-20T07:34:06.576Z,92.79
2019-02-20T07:35:06.591Z,93.10
2019-02-20T07:36:06.562Z,92.58
2019-02-20T07:37:06.720Z,92.79
2019-02-20T07:38:06.524Z,92.79
2019-02-20T07:39:06.514Z,92.89
2019-02-20T07:40:06.529Z,92.68
2019-02-20T07:41:06.494Z,92.99
2019-02-20T07:42:06.480Z,93.10
2019-02-20T07:43:06.480Z,92.79
2019-02-20T07:44:06.456Z,92.99
2019-02-20T07:45:06.465Z,92.89
2019-02-20T07:46:06.482Z,92.89
2019-02-20T07:47:06.433Z,92.83
2019-02-20T07:48:06.420Z,92.79
2019-02-20T07:49:06.397Z,92.79
2019-02-20T07:50:06.426Z,92.07
2019-02-20T07:51:06.779Z,92.89
2019-02-20T07:52:06.366Z,92.54
2019-02-20T07:54:15.091Z,92.85
2019-02-20T07:55:15.067Z,92.64
2019-02-20T07:56:15.082Z,92.89
2019-02-20T07:57:15.033Z,92.99
2019-02-20T07:58:15.034Z,92.79
2019-02-20T07:59:15.028Z,92.38
2019-02-20T08:00:15.021Z,91.92
2019-02-20T08:01:15.005Z,92.07
2019-02-20T08:02:15.050Z,92.23
2019-02-20T08:03:14.976Z,92.48
2019-02-20T08:04:14.969Z,92.38
2019-02-20T08:05:14.987Z,92.02
2019-02-20T08:06:14.973Z,92.54
2019-02-20T08:07:14.932Z,91.86
2019-02-20T08:08:14.978Z,92.44
2019-02-20T08:09:14.926Z,92.95
2019-02-20T08:10:14.904Z,92.33
2019-02-20T08:11:14.893Z,92.58
2019-02-20T08:12:14.878Z,92.33
2019-02-20T08:13:14.914Z,92.02
2019-02-20T08:14:14.902Z,92.33
2019-02-20T08:15:14.859Z,92.33
2019-02-20T08:16:14.840Z,91.92
2019-02-20T08:17:14.825Z,91.61
2019-02-20T08:18:14.823Z,92.02
2019-02-20T08:19:14.808Z,91.82
2019-02-20T08:20:14.839Z,92.13
2019-02-20T08:21:14.778Z,91.61
2019-02-20T08:22:14.782Z,91.82
2019-02-20T08:23:14.783Z,91.61
2019-02-20T08:24:14.749Z,92.23
2019-02-20T08:25:22.422Z,92.23
2019-02-20T08:26:15.747Z,91.88
2019-02-20T08:27:14.720Z,92.29
2019-02-20T08:28:14.717Z,92.44
2019-02-20T08:29:14.709Z,91.71
2019-02-20T08:30:14.690Z,92.23
2019-02-20T08:31:14.702Z,92.19
2019-02-20T08:32:14.674Z,91.36
2019-02-20T08:33:14.662Z,91.56
2019-02-20T08:34:14.657Z,91.36
2019-02-20T08:35:14.662Z,90.95
2019-02-20T08:36:14.630Z,90.99
2019-02-20T08:37:14.663Z,92.19
2019-02-20T08:38:14.616Z,90.95
2019-02-20T08:39:14.651Z,90.99
2019-02-20T08:40:14.641Z,91.16
2019-02-20T08:41:14.566Z,91.50
2019-02-20T08:42:14.619Z,91.56
2019-02-20T08:43:14.579Z,91.05
2019-02-20T08:44:14.576Z,90.99
2019-02-20T08:45:14.538Z,90.74
2019-02-20T08:46:14.555Z,90.95
2019-02-20T08:47:14.513Z,90.84
2019-02-20T08:48:14.741Z,91.16
2019-02-20T08:49:14.514Z,90.95
2019-02-20T08:50:14.488Z,91.16
2019-02-20T08:51:14.489Z,90.95
2019-02-20T08:52:14.480Z,90.64
2019-02-20T08:53:14.444Z,90.33
2019-02-20T08:54:14.441Z,90.33
2019-02-20T08:55:14.490Z,90.12
2019-02-20T08:56:14.434Z,90.74
2019-02-20T08:57:14.403Z,90.39
2019-02-20T08:58:14.417Z,91.05
2019-02-20T08:59:14.379Z,90.22
2019-02-20T09:00:14.375Z,90.43
2019-02-20T09:01:14.853Z,90.43
2019-02-20T09:02:14.343Z,90.53
2019-02-20T09:03:14.352Z,90.33
2019-02-20T09:04:14.333Z,90.02
2019-02-20T09:05:14.359Z,90.84
2019-02-20T09:06:14.308Z,90.59
2019-02-20T09:07:14.342Z,90.80
2019-02-20T09:08:14.286Z,91.01
2019-02-20T09:09:14.285Z,90.19
2019-02-20T09:10:14.282Z,89.67
2019-02-20T09:11:14.250Z,89.46
2019-02-20T09:12:14.249Z,89.56
2019-02-20T09:13:14.234Z,89.67
2019-02-20T09:14:14.234Z,89.56
2019-02-20T09:15:14.207Z,89.46
2019-02-20T09:16:14.206Z,89.56
2019-02-20T09:17:14.225Z,89.67
2019-02-20T09:18:14.174Z,89.52
2019-02-20T09:19:14.167Z,89.42
2019-02-20T09:20:14.169Z,89.42
2019-02-20T09:21:14.149Z,89.62
2019-02-20T09:22:14.135Z,89.62
2019-02-20T09:23:14.144Z,89.62
2019-02-20T09:24:14.105Z,89.52
2019-02-20T09:25:19.937Z,89.62
2019-02-20T09:26:15.112Z,89.01
2019-02-20T09:27:14.098Z,89.11
2019-02-20T09:28:14.069Z,89.11
2019-02-20T09:29:14.057Z,89.52
2019-02-20T09:30:14.038Z,88.96
2019-02-20T09:31:14.028Z,89.42
2019-02-20T09:32:14.052Z,89.11
2019-02-20T09:33:14.023Z,89.38
2019-02-20T09:34:14.001Z,88.90
2019-02-20T09:35:13.991Z,88.90
2019-02-20T09:36:13.994Z,89.32
2019-02-20T09:37:13.970Z,89.28
2019-02-20T09:38:13.977Z,89.32
2019-02-20T09:39:13.950Z,88.80
2019-02-20T09:40:13.941Z,89.01
2019-02-20T09:41:13.928Z,89.22
2019-02-20T09:42:13.922Z,88.70
2019-02-20T09:43:13.934Z,88.80
2019-02-20T09:44:13.912Z,88.80
2019-02-20T09:45:13.887Z,89.22
2019-02-20T09:46:13.874Z,89.11
2019-02-20T09:47:13.856Z,88.80
2019-02-20T09:48:13.882Z,88.56
2019-02-20T09:49:13.889Z,88.70
2019-02-20T09:50:13.851Z,88.24
2019-02-20T09:51:13.836Z,88.86
2019-02-20T09:52:13.810Z,88.45
2019-02-20T09:53:13.811Z,88.65
2019-02-20T09:54:13.823Z,88.24
2019-02-20T09:55:13.808Z,88.14
2019-02-20T09:56:16.109Z,88.35
2019-02-20T09:57:13.765Z,88.45
2019-02-20T09:58:13.744Z,88.14
2019-02-20T09:59:13.735Z,88.14
2019-02-20T10:00:13.734Z,89.03
2019-02-20T10:01:13.734Z,88.24
2019-02-20T10:02:13.719Z,88.24
2019-02-20T10:03:13.693Z,88.65
2019-02-20T10:04:13.673Z,88.04
2019-02-20T10:05:13.685Z,88.31
2019-02-20T10:06:13.652Z,88.10
2019-02-20T10:07:13.650Z,87.48
2019-02-20T10:08:13.664Z,86.97
2019-02-20T10:09:13.630Z,87.48
2019-02-20T10:10:13.631Z,87.52
2019-02-20T10:11:13.629Z,87.48
2019-02-20T10:12:13.589Z,88.10
2019-02-20T10:13:13.581Z,87.38
2019-02-20T10:14:13.563Z,87.69
2019-02-20T10:15:13.560Z,87.69
2019-02-20T10:16:13.584Z,87.90
2019-02-20T10:17:13.558Z,87.27
2019-02-20T10:18:13.527Z,87.90
2019-02-20T10:19:13.519Z,87.79
2019-02-20T10:20:13.512Z,87.48
2019-02-20T10:21:13.509Z,86.97
2019-02-20T10:22:13.511Z,87.79
2019-02-20T10:23:13.465Z,87.59
2019-02-20T10:24:13.462Z,87.07
2019-02-20T10:25:13.449Z,87.59
2019-02-20T10:26:13.432Z,87.79
2019-02-20T10:27:13.428Z,87.59
2019-02-20T10:28:13.427Z,87.13
2019-02-20T10:29:13.407Z,87.07
2019-02-20T10:30:13.401Z,87.17
2019-02-20T10:31:13.385Z,86.93
2019-02-20T10:32:13.377Z,87.07
2019-02-20T10:33:13.386Z,85.69
2019-02-20T10:34:13.365Z,86.87
2019-02-20T10:35:13.347Z,86.76
2019-02-20T10:36:13.338Z,86.55
2019-02-20T10:37:13.319Z,86.45
2019-02-20T10:38:13.317Z,86.15
2019-02-20T10:39:13.350Z,86.52
2019-02-20T10:40:13.293Z,86.35
2019-02-20T10:41:13.292Z,87.24
2019-02-20T10:42:13.267Z,86.35
2019-02-20T10:43:13.278Z,86.00
2019-02-20T10:44:13.239Z,86.41
2019-02-20T10:45:13.229Z,85.79
2019-02-20T10:46:13.219Z,86.00
2019-02-20T10:47:13.215Z,86.00
2019-02-20T10:48:13.221Z,85.38
2019-02-20T10:49:13.190Z,85.89
2019-02-20T10:50:13.181Z,86.52
2019-02-20T10:51:13.169Z,86.41
2019-02-20T10:52:13.169Z,85.44
2019-02-20T10:53:13.147Z,85.24
2019-02-20T10:54:13.163Z,85.44
2019-02-20T10:55:13.139Z,84.62
2019-02-20T10:56:13.118Z,84.52
2019-02-20T10:57:13.107Z,84.21
2019-02-20T10:58:13.099Z,84.11
2019-02-20T10:59:13.111Z,84.48
2019-02-20T11:00:23.184Z,84.07
2019-02-20T11:01:14.058Z,84.00
2019-02-20T11:02:13.050Z,84.11
2019-02-20T11:03:13.061Z,83.90
2019-02-20T11:04:13.049Z,84.11
2019-02-20T11:05:13.039Z,84.17
2019-02-20T11:06:13.002Z,84.07
2019-02-20T11:07:12.988Z,83.35
2019-02-20T11:08:13.094Z,84.17
2019-02-20T11:09:12.988Z,84.11
2019-02-20T11:10:12.971Z,84.11
2019-02-20T11:11:12.976Z,83.97
2019-02-20T11:12:12.967Z,83.70
2019-02-20T11:13:12.918Z,84.00
2019-02-20T11:14:12.930Z,84.31
2019-02-20T11:15:13.226Z,84.00
2019-02-20T11:16:12.956Z,84.11
2019-02-20T11:17:12.891Z,84.42
2019-02-20T11:18:12.873Z,84.27
2019-02-20T11:19:12.935Z,84.07
2019-02-20T11:20:13.777Z,83.35
2019-02-20T11:21:12.839Z,84.07
2019-02-20T11:22:12.832Z,83.97
2019-02-20T11:23:12.824Z,83.39
2019-02-20T11:24:12.819Z,83.45
2019-02-20T11:25:13.303Z,83.70
2019-02-20T11:26:18.391Z,83.55
2019-02-20T11:27:13.767Z,83.39
2019-02-20T11:28:12.772Z,83.35
2019-02-20T11:29:12.763Z,84.17
2019-02-20T11:30:12.836Z,83.76
2019-02-20T11:31:12.740Z,83.35
2019-02-20T11:32:12.715Z,82.93
2019-02-20T11:33:12.741Z,83.76
2019-02-20T11:34:12.710Z,83.76
2019-02-20T11:35:12.687Z,83.45
2019-02-20T11:36:12.710Z,83.76
2019-02-20T11:37:12.665Z,83.35
2019-02-20T11:38:14.194Z,83.35
2019-02-20T11:39:12.658Z,83.35
2019-02-20T11:40:12.629Z,83.31
2019-02-20T11:41:13.541Z,83.25
2019-02-20T11:42:12.646Z,82.83
2019-02-20T11:43:12.611Z,83.20
2019-02-20T11:44:20.660Z,83.55
2019-02-20T11:45:13.575Z,83.55
2019-02-20T11:46:12.632Z,83.97
2019-02-20T11:47:12.580Z,84.03
2019-02-20T11:48:12.540Z,84.03
2019-02-20T11:49:12.551Z,83.72
2019-02-20T11:50:12.575Z,83.20
2019-02-20T11:51:12.537Z,83.76
2019-02-20T11:52:12.501Z,83.45
2019-02-20T11:53:12.579Z,83.76
2019-02-20T11:54:12.473Z,84.17
2019-02-20T11:55:12.479Z,83.97
2019-02-20T11:56:12.468Z,84.38
2019-02-20T11:57:13.915Z,85.26
2019-02-20T11:58:12.431Z,84.27
2019-02-20T11:59:12.452Z,84.54
2019-02-20T12:00:12.425Z,84.17
2019-02-20T12:01:12.410Z,84.07
2019-02-20T12:02:12.404Z,84.44
2019-02-20T12:03:12.372Z,84.13
2019-02-20T12:04:12.378Z,83.41
2019-02-20T12:05:12.824Z,84.34
2019-02-20T12:06:12.354Z,83.92
2019-02-20T12:07:12.334Z,83.00
2019-02-20T12:08:12.336Z,83.51
2019-02-20T12:09:12.317Z,82.63
2019-02-20T12:10:12.867Z,83.51
2019-02-20T12:11:12.284Z,83.41
2019-02-20T12:12:12.273Z,83.45
2019-02-20T12:13:12.279Z,83.92
2019-02-20T12:14:12.276Z,83.20
2019-02-20T12:15:12.239Z,83.20
2019-02-20T12:16:12.299Z,82.90
2019-02-20T12:17:12.227Z,82.90
2019-02-20T12:18:17.419Z,83.11
2019-02-20T12:19:13.204Z,83.00
2019-02-20T12:20:12.196Z,83.20
2019-02-20T12:21:12.336Z,83.51
2019-02-20T12:22:12.186Z,82.69
2019-02-20T12:23:12.160Z,81.76
2019-02-20T12:24:12.154Z,82.39
2019-02-20T12:25:12.202Z,82.18
2019-02-20T12:26:12.130Z,81.76
2019-02-20T12:27:12.136Z,82.28
2019-02-20T12:28:12.106Z,82.45
2019-02-20T12:29:12.093Z,81.46
2019-02-20T12:30:12.089Z,81.62
2019-02-20T12:31:12.087Z,82.45
2019-02-20T12:32:12.060Z,82.34
2019-02-20T12:33:12.070Z,82.24
2019-02-20T12:34:12.034Z,82.04
2019-02-20T12:35:12.037Z,81.73
2019-02-20T12:36:12.024Z,81.52
2019-02-20T12:37:12.025Z,81.01
2019-02-20T12:38:12.034Z,80.70
2019-02-20T12:39:11.995Z,80.29
2019-02-20T12:40:11.989Z,80.39
2019-02-20T12:41:11.966Z,80.49
2019-02-20T12:42:13.035Z,80.39
2019-02-20T12:43:11.949Z,80.19
2019-02-20T12:44:11.985Z,80.70
2019-02-20T12:45:11.923Z,80.29
2019-02-20T12:46:11.913Z,79.77
2019-02-20T12:47:11.915Z,79.67
2019-02-20T12:48:11.901Z,79.57
2019-02-20T12:49:11.871Z,80.19
2019-02-20T12:50:11.921Z,79.88
2019-02-20T12:51:11.858Z,79.88
2019-02-20T12:52:11.840Z,80.60
2019-02-20T12:53:11.847Z,80.05
2019-02-20T12:54:11.830Z,79.84
2019-02-20T12:55:11.806Z,79.98
2019-02-20T12:56:11.835Z,80.77